sensor_id;sensor_type;location;lat;lon;timestamp;P1;durP1;ratioP1;P2;durP2;ratioP2
10050;SDS011;5065;46.942;7.432;2024-03-23T00:52:07;2.30;;;1.67;;
10050;SDS011;5065;46.942;7.432;2024-03-23T00:54:33;1.83;;;1.57;;
10050;SDS011;5065;46.942;7.432;2024-03-23T00:57:01;3.07;;;1.80;;
10050;SDS011;5065;46.942;7.432;2024-03-23T00:59:27;2.97;;;2.23;;
10050;SDS011;5065;46.942;7.432;2024-03-23T01:01:56;4.17;;;2.20;;
10050;SDS011;5065;46.942;7.432;2024-03-23T01:04:22;1.70;;;1.50;;
10050;SDS011;5065;46.942;7.432;2024-03-23T01:06:49;1.93;;;1.63;;
10050;SDS011;5065;46.942;7.432;2024-03-23T01:09:17;5.17;;;1.50;;
10050;SDS011;5065;46.942;7.432;2024-03-23T01:11:44;2.17;;;1.80;;
10050;SDS011;5065;46.942;7.432;2024-03-23T01:14:11;3.17;;;1.90;;
10050;SDS011;5065;46.942;7.432;2024-03-23T01:16:37;1.50;;;1.40;;
10050;SDS011;5065;46.942;7.432;2024-03-23T01:19:04;1.70;;;1.60;;
10050;SDS011;5065;46.942;7.432;2024-03-23T01:21:31;2.37;;;1.80;;
10050;SDS011;5065;46.942;7.432;2024-03-23T01:23:58;2.30;;;1.47;;
10050;SDS011;5065;46.942;7.432;2024-03-23T01:26:25;4.63;;;2.00;;
10050;SDS011;5065;46.942;7.432;2024-03-23T01:28:53;4.50;;;2.00;;
10050;SDS011;5065;46.942;7.432;2024-03-23T01:31:19;2.77;;;1.63;;
10050;SDS011;5065;46.942;7.432;2024-03-23T01:33:46;1.53;;;1.37;;
10050;SDS011;5065;46.942;7.432;2024-03-23T01:36:12;2.10;;;1.83;;
10050;SDS011;5065;46.942;7.432;2024-03-23T01:38:39;2.83;;;1.53;;
10050;SDS011;5065;46.942;7.432;2024-03-23T01:41:05;1.97;;;1.77;;
10050;SDS011;5065;46.942;7.432;2024-03-23T01:43:34;4.33;;;1.60;;
10050;SDS011;5065;46.942;7.432;2024-03-23T01:46:00;1.80;;;1.40;;
10050;SDS011;5065;46.942;7.432;2024-03-23T01:48:27;1.93;;;1.57;;
10050;SDS011;5065;46.942;7.432;2024-03-23T01:50:53;1.70;;;1.40;;
10050;SDS011;5065;46.942;7.432;2024-03-23T01:53:23;4.27;;;2.63;;
10050;SDS011;5065;46.942;7.432;2024-03-23T01:55:50;1.07;;;1.03;;
10050;SDS011;5065;46.942;7.432;2024-03-23T01:58:17;1.70;;;1.60;;
10050;SDS011;5065;46.942;7.432;2024-03-23T02:00:45;4.97;;;1.73;;
10050;SDS011;5065;46.942;7.432;2024-03-23T02:03:21;2.20;;;1.73;;
10050;SDS011;5065;46.942;7.432;2024-03-23T02:05:48;1.90;;;1.70;;
10050;SDS011;5065;46.942;7.432;2024-03-23T02:08:16;1.67;;;1.57;;
10050;SDS011;5065;46.942;7.432;2024-03-23T02:10:43;3.13;;;1.53;;
10050;SDS011;5065;46.942;7.432;2024-03-23T02:13:10;2.30;;;1.47;;
10050;SDS011;5065;46.942;7.432;2024-03-23T02:15:36;2.63;;;1.73;;
10050;SDS011;5065;46.942;7.432;2024-03-23T02:18:06;3.03;;;1.47;;
10050;SDS011;5065;46.942;7.432;2024-03-23T02:20:34;2.57;;;1.73;;
10050;SDS011;5065;46.942;7.432;2024-03-23T02:23:02;2.77;;;1.53;;
10050;SDS011;5065;46.942;7.432;2024-03-23T02:25:31;2.20;;;1.80;;
10050;SDS011;5065;46.942;7.432;2024-03-23T02:27:58;1.87;;;1.63;;
10050;SDS011;5065;46.942;7.432;2024-03-23T02:30:24;2.47;;;1.30;;
10050;SDS011;5065;46.942;7.432;2024-03-23T02:32:51;1.77;;;1.43;;
10050;SDS011;5065;46.942;7.432;2024-03-23T02:35:18;1.10;;;1.00;;
10050;SDS011;5065;46.942;7.432;2024-03-23T02:37:45;1.77;;;1.30;;
10050;SDS011;5065;46.942;7.432;2024-03-23T02:40:13;2.73;;;1.30;;
10050;SDS011;5065;46.942;7.432;2024-03-23T02:42:40;2.20;;;1.63;;
10050;SDS011;5065;46.942;7.432;2024-03-23T02:45:06;6.90;;;1.20;;
10050;SDS011;5065;46.942;7.432;2024-03-23T02:47:34;2.70;;;1.50;;
10050;SDS011;5065;46.942;7.432;2024-03-23T02:50:00;3.83;;;1.40;;
10050;SDS011;5065;46.942;7.432;2024-03-23T02:52:27;1.30;;;1.20;;
10050;SDS011;5065;46.942;7.432;2024-03-23T02:54:53;2.03;;;1.10;;
10050;SDS011;5065;46.942;7.432;2024-03-23T02:57:21;2.40;;;1.70;;
10050;SDS011;5065;46.942;7.432;2024-03-23T02:59:47;1.67;;;1.40;;
10050;SDS011;5065;46.942;7.432;2024-03-23T03:02:15;1.97;;;1.30;;
10050;SDS011;5065;46.942;7.432;2024-03-23T03:04:41;3.83;;;1.70;;
10050;SDS011;5065;46.942;7.432;2024-03-23T03:07:08;1.97;;;1.43;;
10050;SDS011;5065;46.942;7.432;2024-03-23T03:09:35;1.47;;;1.23;;
10050;SDS011;5065;46.942;7.432;2024-03-23T03:12:04;1.30;;;1.20;;
10050;SDS011;5065;46.942;7.432;2024-03-23T03:14:32;2.03;;;1.83;;
10050;SDS011;5065;46.942;7.432;2024-03-23T03:16:59;3.40;;;1.40;;
10050;SDS011;5065;46.942;7.432;2024-03-23T03:19:25;2.27;;;1.40;;
10050;SDS011;5065;46.942;7.432;2024-03-23T03:21:52;2.77;;;1.47;;
10050;SDS011;5065;46.942;7.432;2024-03-23T03:24:18;2.77;;;1.23;;
10050;SDS011;5065;46.942;7.432;2024-03-23T03:26:46;1.63;;;1.17;;
10050;SDS011;5065;46.942;7.432;2024-03-23T03:29:12;1.50;;;1.33;;
10050;SDS011;5065;46.942;7.432;2024-03-23T03:31:41;1.70;;;1.10;;
10050;SDS011;5065;46.942;7.432;2024-03-23T03:34:08;3.07;;;1.80;;
10050;SDS011;5065;46.942;7.432;2024-03-23T03:36:35;1.47;;;1.30;;
10050;SDS011;5065;46.942;7.432;2024-03-23T03:39:01;2.03;;;1.50;;
10050;SDS011;5065;46.942;7.432;2024-03-23T03:41:29;2.40;;;1.47;;
10050;SDS011;5065;46.942;7.432;2024-03-23T03:43:56;1.90;;;1.40;;
10050;SDS011;5065;46.942;7.432;2024-03-23T03:46:26;2.93;;;1.50;;
10050;SDS011;5065;46.942;7.432;2024-03-23T03:48:55;2.20;;;1.37;;
10050;SDS011;5065;46.942;7.432;2024-03-23T03:51:22;1.77;;;1.33;;
10050;SDS011;5065;46.942;7.432;2024-03-23T03:53:48;1.97;;;1.60;;
10050;SDS011;5065;46.942;7.432;2024-03-23T03:56:15;1.40;;;1.23;;
10050;SDS011;5065;46.942;7.432;2024-03-23T03:58:41;1.27;;;1.17;;
10050;SDS011;5065;46.942;7.432;2024-03-23T04:01:09;2.47;;;1.30;;
10050;SDS011;5065;46.942;7.432;2024-03-23T04:03:35;5.47;;;1.80;;
10050;SDS011;5065;46.942;7.432;2024-03-23T04:06:06;1.57;;;1.47;;
10050;SDS011;5065;46.942;7.432;2024-03-23T04:08:32;1.60;;;1.20;;
10050;SDS011;5065;46.942;7.432;2024-03-23T04:10:59;1.67;;;1.23;;
10050;SDS011;5065;46.942;7.432;2024-03-23T04:13:25;1.60;;;1.23;;
10050;SDS011;5065;46.942;7.432;2024-03-23T04:15:53;3.40;;;1.70;;
10050;SDS011;5065;46.942;7.432;2024-03-23T04:18:20;1.73;;;1.60;;
10050;SDS011;5065;46.942;7.432;2024-03-23T04:20:47;2.67;;;1.33;;
10050;SDS011;5065;46.942;7.432;2024-03-23T04:23:15;1.83;;;1.40;;
10050;SDS011;5065;46.942;7.432;2024-03-23T04:25:42;1.30;;;1.20;;
10050;SDS011;5065;46.942;7.432;2024-03-23T04:28:08;1.83;;;1.40;;
10050;SDS011;5065;46.942;7.432;2024-03-23T04:30:35;2.73;;;1.40;;
10050;SDS011;5065;46.942;7.432;2024-03-23T04:33:02;1.50;;;1.03;;
10050;SDS011;5065;46.942;7.432;2024-03-23T04:35:30;1.95;;;1.58;;
10050;SDS011;5065;46.942;7.432;2024-03-23T04:37:56;2.67;;;1.60;;
10050;SDS011;5065;46.942;7.432;2024-03-23T04:40:26;2.50;;;1.20;;
10050;SDS011;5065;46.942;7.432;2024-03-23T04:42:52;1.47;;;1.10;;
10050;SDS011;5065;46.942;7.432;2024-03-23T04:45:19;1.73;;;1.57;;
10050;SDS011;5065;46.942;7.432;2024-03-23T04:47:46;4.20;;;1.57;;
10050;SDS011;5065;46.942;7.432;2024-03-23T04:50:12;1.60;;;1.47;;
10050;SDS011;5065;46.942;7.432;2024-03-23T04:52:39;3.00;;;1.63;;
10050;SDS011;5065;46.942;7.432;2024-03-23T04:55:07;3.33;;;1.40;;
10050;SDS011;5065;46.942;7.432;2024-03-23T04:57:35;2.77;;;1.20;;
10050;SDS011;5065;46.942;7.432;2024-03-23T05:00:01;3.30;;;1.93;;
10050;SDS011;5065;46.942;7.432;2024-03-23T05:02:40;2.23;;;1.73;;
10050;SDS011;5065;46.942;7.432;2024-03-23T05:05:06;1.40;;;1.27;;
10050;SDS011;5065;46.942;7.432;2024-03-23T05:07:33;1.13;;;1.03;;
10050;SDS011;5065;46.942;7.432;2024-03-23T05:09:59;2.80;;;1.70;;
10050;SDS011;5065;46.942;7.432;2024-03-23T05:12:26;1.97;;;1.67;;
10050;SDS011;5065;46.942;7.432;2024-03-23T05:14:54;4.50;;;2.20;;
10050;SDS011;5065;46.942;7.432;2024-03-23T05:17:21;2.47;;;1.93;;
10050;SDS011;5065;46.942;7.432;2024-03-23T05:19:47;3.53;;;2.40;;
10050;SDS011;5065;46.942;7.432;2024-03-23T05:22:14;2.63;;;2.43;;
10050;SDS011;5065;46.942;7.432;2024-03-23T05:24:40;5.03;;;2.40;;
10050;SDS011;5065;46.942;7.432;2024-03-23T05:27:07;3.97;;;2.40;;
10050;SDS011;5065;46.942;7.432;2024-03-23T05:29:33;2.43;;;1.80;;
10050;SDS011;5065;46.942;7.432;2024-03-23T05:32:02;2.23;;;2.03;;
10050;SDS011;5065;46.942;7.432;2024-03-23T05:34:28;3.20;;;2.43;;
10050;SDS011;5065;46.942;7.432;2024-03-23T05:36:56;3.13;;;2.10;;
10050;SDS011;5065;46.942;7.432;2024-03-23T05:39:22;2.43;;;2.13;;
10050;SDS011;5065;46.942;7.432;2024-03-23T05:41:49;4.10;;;2.60;;
10050;SDS011;5065;46.942;7.432;2024-03-23T05:44:15;2.33;;;2.13;;
10050;SDS011;5065;46.942;7.432;2024-03-23T05:46:42;3.53;;;2.67;;
10050;SDS011;5065;46.942;7.432;2024-03-23T05:49:14;3.67;;;2.73;;
10050;SDS011;5065;46.942;7.432;2024-03-23T05:51:42;5.47;;;2.57;;
10050;SDS011;5065;46.942;7.432;2024-03-23T05:54:08;4.73;;;2.53;;
10050;SDS011;5065;46.942;7.432;2024-03-23T05:56:35;4.47;;;2.63;;
10050;SDS011;5065;46.942;7.432;2024-03-23T05:59:02;3.17;;;2.43;;
10050;SDS011;5065;46.942;7.432;2024-03-23T06:01:29;4.43;;;2.33;;
10050;SDS011;5065;46.942;7.432;2024-03-23T06:03:57;4.37;;;2.07;;
10050;SDS011;5065;46.942;7.432;2024-03-23T06:06:27;4.40;;;2.83;;
10050;SDS011;5065;46.942;7.432;2024-03-23T06:08:55;5.60;;;2.43;;
10050;SDS011;5065;46.942;7.432;2024-03-23T06:11:22;3.50;;;2.37;;
10050;SDS011;5065;46.942;7.432;2024-03-23T06:13:48;2.47;;;2.07;;
10050;SDS011;5065;46.942;7.432;2024-03-23T06:16:15;4.40;;;2.17;;
10050;SDS011;5065;46.942;7.432;2024-03-23T06:18:41;2.97;;;2.17;;
10050;SDS011;5065;46.942;7.432;2024-03-23T06:21:12;2.67;;;2.10;;
10050;SDS011;5065;46.942;7.432;2024-03-23T06:23:41;2.43;;;2.20;;
10050;SDS011;5065;46.942;7.432;2024-03-23T06:26:13;3.23;;;2.60;;
10050;SDS011;5065;46.942;7.432;2024-03-23T06:28:39;3.70;;;1.70;;
10050;SDS011;5065;46.942;7.432;2024-03-23T06:31:08;2.80;;;1.73;;
10050;SDS011;5065;46.942;7.432;2024-03-23T06:33:34;2.70;;;2.10;;
10050;SDS011;5065;46.942;7.432;2024-03-23T06:36:02;2.30;;;1.63;;
10050;SDS011;5065;46.942;7.432;2024-03-23T06:38:28;2.00;;;1.57;;
10050;SDS011;5065;46.942;7.432;2024-03-23T06:40:57;2.47;;;1.50;;
10050;SDS011;5065;46.942;7.432;2024-03-23T06:43:23;2.13;;;1.57;;
10050;SDS011;5065;46.942;7.432;2024-03-23T06:45:52;1.83;;;1.57;;
10050;SDS011;5065;46.942;7.432;2024-03-23T06:48:18;1.90;;;1.60;;
10050;SDS011;5065;46.942;7.432;2024-03-23T06:50:46;3.07;;;1.60;;
10050;SDS011;5065;46.942;7.432;2024-03-23T06:53:13;1.30;;;1.20;;
10050;SDS011;5065;46.942;7.432;2024-03-23T06:55:39;2.17;;;1.57;;
10050;SDS011;5065;46.942;7.432;2024-03-23T06:58:08;2.70;;;1.30;;
10050;SDS011;5065;46.942;7.432;2024-03-23T07:00:35;2.00;;;1.20;;
10050;SDS011;5065;46.942;7.432;2024-03-23T07:03:02;1.50;;;1.07;;
10050;SDS011;5065;46.942;7.432;2024-03-23T07:05:29;2.03;;;1.20;;
10050;SDS011;5065;46.942;7.432;2024-03-23T07:07:56;1.27;;;1.00;;
10050;SDS011;5065;46.942;7.432;2024-03-23T07:10:22;1.23;;;1.13;;
10050;SDS011;5065;46.942;7.432;2024-03-23T07:12:49;1.90;;;1.60;;
10050;SDS011;5065;46.942;7.432;2024-03-23T07:15:17;1.10;;;1.00;;
10050;SDS011;5065;46.942;7.432;2024-03-23T07:17:46;1.27;;;1.07;;
10050;SDS011;5065;46.942;7.432;2024-03-23T07:20:12;1.73;;;1.20;;
10050;SDS011;5065;46.942;7.432;2024-03-23T07:22:40;0.87;;;0.87;;
10050;SDS011;5065;46.942;7.432;2024-03-23T07:25:06;1.27;;;1.17;;
10050;SDS011;5065;46.942;7.432;2024-03-23T07:27:34;1.23;;;1.13;;
10050;SDS011;5065;46.942;7.432;2024-03-23T07:30:00;1.40;;;1.20;;
10050;SDS011;5065;46.942;7.432;2024-03-23T07:32:29;1.57;;;1.17;;
10050;SDS011;5065;46.942;7.432;2024-03-23T07:34:55;1.57;;;1.00;;
10050;SDS011;5065;46.942;7.432;2024-03-23T07:37:24;1.33;;;1.00;;
10050;SDS011;5065;46.942;7.432;2024-03-23T07:39:51;2.97;;;1.10;;
10050;SDS011;5065;46.942;7.432;2024-03-23T07:42:18;2.20;;;1.00;;
10050;SDS011;5065;46.942;7.432;2024-03-23T07:44:44;1.33;;;1.23;;
10050;SDS011;5065;46.942;7.432;2024-03-23T07:47:11;7.30;;;1.37;;
10050;SDS011;5065;46.942;7.432;2024-03-23T07:49:39;1.67;;;1.17;;
10050;SDS011;5065;46.942;7.432;2024-03-23T07:52:06;0.83;;;0.83;;
10050;SDS011;5065;46.942;7.432;2024-03-23T07:54:33;0.67;;;0.40;;
10050;SDS011;5065;46.942;7.432;2024-03-23T07:57:00;0.30;;;0.30;;
10050;SDS011;5065;46.942;7.432;2024-03-23T07:59:26;0.33;;;0.33;;
10050;SDS011;5065;46.942;7.432;2024-03-23T08:01:57;0.30;;;0.30;;
10050;SDS011;5065;46.942;7.432;2024-03-23T08:04:23;0.27;;;0.20;;
10050;SDS011;5065;46.942;7.432;2024-03-23T08:06:51;0.23;;;0.23;;
10050;SDS011;5065;46.942;7.432;2024-03-23T08:09:18;0.20;;;0.20;;
10050;SDS011;5065;46.942;7.432;2024-03-23T08:11:45;0.33;;;0.20;;
10050;SDS011;5065;46.942;7.432;2024-03-23T08:14:11;0.40;;;0.30;;
10050;SDS011;5065;46.942;7.432;2024-03-23T08:16:40;0.20;;;0.20;;
10050;SDS011;5065;46.942;7.432;2024-03-23T08:19:06;0.20;;;0.20;;
10050;SDS011;5065;46.942;7.432;2024-03-23T08:21:34;0.30;;;0.30;;
10050;SDS011;5065;46.942;7.432;2024-03-23T08:24:02;0.20;;;0.20;;
10050;SDS011;5065;46.942;7.432;2024-03-23T08:26:30;0.40;;;0.40;;
10050;SDS011;5065;46.942;7.432;2024-03-23T08:28:56;0.30;;;0.30;;
10050;SDS011;5065;46.942;7.432;2024-03-23T08:31:23;0.40;;;0.10;;
10050;SDS011;5065;46.942;7.432;2024-03-23T08:33:50;0.20;;;0.20;;
10050;SDS011;5065;46.942;7.432;2024-03-23T08:36:17;0.20;;;0.20;;
10050;SDS011;5065;46.942;7.432;2024-03-23T08:38:43;0.93;;;0.50;;
10050;SDS011;5065;46.942;7.432;2024-03-23T08:41:12;0.30;;;0.30;;
10050;SDS011;5065;46.942;7.432;2024-03-23T08:43:38;0.20;;;0.20;;
10050;SDS011;5065;46.942;7.432;2024-03-23T08:46:07;0.23;;;0.10;;
10050;SDS011;5065;46.942;7.432;2024-03-23T08:48:34;0.10;;;0.10;;
10050;SDS011;5065;46.942;7.432;2024-03-23T08:51:03;0.13;;;0.13;;
10050;SDS011;5065;46.942;7.432;2024-03-23T08:53:30;0.23;;;0.23;;
10050;SDS011;5065;46.942;7.432;2024-03-23T08:55:57;0.10;;;0.10;;
10050;SDS011;5065;46.942;7.432;2024-03-23T08:58:27;0.20;;;0.20;;
10050;SDS011;5065;46.942;7.432;2024-03-23T09:00:55;0.13;;;0.13;;
10050;SDS011;5065;46.942;7.432;2024-03-23T09:03:22;0.30;;;0.30;;
10050;SDS011;5065;46.942;7.432;2024-03-23T09:05:50;0.43;;;0.43;;
10050;SDS011;5065;46.942;7.432;2024-03-23T09:08:17;0.30;;;0.23;;
10050;SDS011;5065;46.942;7.432;2024-03-23T09:10:44;0.40;;;0.27;;
10050;SDS011;5065;46.942;7.432;2024-03-23T09:13:12;0.23;;;0.23;;
10050;SDS011;5065;46.942;7.432;2024-03-23T09:15:49;0.20;;;0.20;;
10050;SDS011;5065;46.942;7.432;2024-03-23T09:18:16;0.20;;;0.20;;
10050;SDS011;5065;46.942;7.432;2024-03-23T09:20:43;0.10;;;0.10;;
10050;SDS011;5065;46.942;7.432;2024-03-23T09:23:09;0.70;;;0.30;;
10050;SDS011;5065;46.942;7.432;2024-03-23T09:25:37;0.20;;;0.20;;
10050;SDS011;5065;46.942;7.432;2024-03-23T09:28:04;0.83;;;0.50;;
10050;SDS011;5065;46.942;7.432;2024-03-23T09:30:32;0.83;;;0.63;;
10050;SDS011;5065;46.942;7.432;2024-03-23T09:33:00;0.30;;;0.30;;
10050;SDS011;5065;46.942;7.432;2024-03-23T09:35:27;0.53;;;0.37;;
10050;SDS011;5065;46.942;7.432;2024-03-23T09:37:53;0.73;;;0.47;;
10050;SDS011;5065;46.942;7.432;2024-03-23T09:40:20;2.77;;;0.60;;
10050;SDS011;5065;46.942;7.432;2024-03-23T09:42:49;0.20;;;0.20;;
10050;SDS011;5065;46.942;7.432;2024-03-23T09:45:17;1.03;;;0.30;;
10050;SDS011;5065;46.942;7.432;2024-03-23T09:47:46;1.30;;;0.60;;
10050;SDS011;5065;46.942;7.432;2024-03-23T09:50:17;1.00;;;0.60;;
10050;SDS011;5065;46.942;7.432;2024-03-23T09:52:45;0.57;;;0.53;;
10050;SDS011;5065;46.942;7.432;2024-03-23T09:55:13;1.27;;;1.17;;
10050;SDS011;5065;46.942;7.432;2024-03-23T09:57:39;0.80;;;0.80;;
10050;SDS011;5065;46.942;7.432;2024-03-23T10:00:09;1.03;;;0.50;;
10050;SDS011;5065;46.942;7.432;2024-03-23T10:02:37;2.20;;;0.40;;
10050;SDS011;5065;46.942;7.432;2024-03-23T10:05:09;0.50;;;0.50;;
10050;SDS011;5065;46.942;7.432;2024-03-23T10:07:48;2.63;;;0.50;;
10050;SDS011;5065;46.942;7.432;2024-03-23T10:10:15;1.97;;;0.50;;
10050;SDS011;5065;46.942;7.432;2024-03-23T10:12:43;0.67;;;0.40;;
10050;SDS011;5065;46.942;7.432;2024-03-23T10:15:15;0.50;;;0.50;;
10050;SDS011;5065;46.942;7.432;2024-03-23T10:17:44;1.80;;;0.30;;
10050;SDS011;5065;46.942;7.432;2024-03-23T10:20:11;0.40;;;0.40;;
10050;SDS011;5065;46.942;7.432;2024-03-23T10:22:38;0.47;;;0.40;;
10050;SDS011;5065;46.942;7.432;2024-03-23T10:25:09;0.27;;;0.27;;
10050;SDS011;5065;46.942;7.432;2024-03-23T10:27:36;1.70;;;0.67;;
10050;SDS011;5065;46.942;7.432;2024-03-23T10:30:10;0.77;;;0.40;;
10050;SDS011;5065;46.942;7.432;2024-03-23T10:32:37;0.30;;;0.30;;
10050;SDS011;5065;46.942;7.432;2024-03-23T10:35:14;1.60;;;0.90;;
10050;SDS011;5065;46.942;7.432;2024-03-23T10:37:42;1.47;;;0.70;;
10050;SDS011;5065;46.942;7.432;2024-03-23T10:40:10;0.80;;;0.40;;
10050;SDS011;5065;46.942;7.432;2024-03-23T10:42:40;1.70;;;0.53;;
10050;SDS011;5065;46.942;7.432;2024-03-23T10:45:08;1.23;;;0.57;;
10050;SDS011;5065;46.942;7.432;2024-03-23T10:47:35;2.30;;;0.63;;
10050;SDS011;5065;46.942;7.432;2024-03-23T10:50:03;1.07;;;0.60;;
10050;SDS011;5065;46.942;7.432;2024-03-23T10:52:30;1.07;;;0.63;;
10050;SDS011;5065;46.942;7.432;2024-03-23T10:54:59;1.53;;;0.80;;
10050;SDS011;5065;46.942;7.432;2024-03-23T10:57:29;2.47;;;0.80;;
10050;SDS011;5065;46.942;7.432;2024-03-23T11:00:01;2.23;;;0.63;;
10050;SDS011;5065;46.942;7.432;2024-03-23T11:02:29;1.27;;;0.70;;
10050;SDS011;5065;46.942;7.432;2024-03-23T11:04:56;1.20;;;0.90;;
10050;SDS011;5065;46.942;7.432;2024-03-23T11:07:29;2.30;;;0.80;;
10050;SDS011;5065;46.942;7.432;2024-03-23T11:09:57;4.10;;;1.60;;
10050;SDS011;5065;46.942;7.432;2024-03-23T11:12:26;1.80;;;1.10;;
10050;SDS011;5065;46.942;7.432;2024-03-23T11:14:57;1.40;;;0.73;;
10050;SDS011;5065;46.942;7.432;2024-03-23T11:17:28;1.37;;;0.80;;
10050;SDS011;5065;46.942;7.432;2024-03-23T11:19:56;0.70;;;0.50;;
10050;SDS011;5065;46.942;7.432;2024-03-23T11:22:38;4.20;;;0.80;;
10050;SDS011;5065;46.942;7.432;2024-03-23T11:25:17;4.10;;;0.70;;
10050;SDS011;5065;46.942;7.432;2024-03-23T11:27:46;1.73;;;0.83;;
10050;SDS011;5065;46.942;7.432;2024-03-23T11:30:14;0.90;;;0.63;;
10050;SDS011;5065;46.942;7.432;2024-03-23T11:32:42;2.47;;;0.83;;
10050;SDS011;5065;46.942;7.432;2024-03-23T11:35:10;3.00;;;1.23;;
10050;SDS011;5065;46.942;7.432;2024-03-23T11:38:00;1.87;;;0.70;;
10050;SDS011;5065;46.942;7.432;2024-03-23T11:40:33;1.30;;;0.77;;
10050;SDS011;5065;46.942;7.432;2024-03-23T11:43:00;2.73;;;0.50;;
10050;SDS011;5065;46.942;7.432;2024-03-23T11:45:29;2.43;;;0.70;;
10050;SDS011;5065;46.942;7.432;2024-03-23T11:48:06;1.83;;;1.00;;
10050;SDS011;5065;46.942;7.432;2024-03-23T11:50:36;0.63;;;0.63;;
10050;SDS011;5065;46.942;7.432;2024-03-23T11:53:13;2.30;;;1.20;;
10050;SDS011;5065;46.942;7.432;2024-03-23T11:55:43;2.83;;;1.23;;
10050;SDS011;5065;46.942;7.432;2024-03-23T11:58:13;1.80;;;0.93;;
10050;SDS011;5065;46.942;7.432;2024-03-23T12:00:42;2.20;;;0.77;;
10050;SDS011;5065;46.942;7.432;2024-03-23T12:03:14;1.70;;;0.63;;
10050;SDS011;5065;46.942;7.432;2024-03-23T12:05:46;0.70;;;0.30;;
10050;SDS011;5065;46.942;7.432;2024-03-23T12:08:21;0.87;;;0.53;;
10050;SDS011;5065;46.942;7.432;2024-03-23T12:10:51;4.57;;;0.90;;
10050;SDS011;5065;46.942;7.432;2024-03-23T12:13:18;0.63;;;0.50;;
10050;SDS011;5065;46.942;7.432;2024-03-23T12:15:47;0.77;;;0.50;;
10050;SDS011;5065;46.942;7.432;2024-03-23T12:18:14;3.53;;;0.83;;
10050;SDS011;5065;46.942;7.432;2024-03-23T12:20:42;0.40;;;0.40;;
10050;SDS011;5065;46.942;7.432;2024-03-23T12:23:09;1.13;;;0.57;;
10050;SDS011;5065;46.942;7.432;2024-03-23T12:25:38;4.83;;;1.07;;
10050;SDS011;5065;46.942;7.432;2024-03-23T12:28:06;2.70;;;0.70;;
10050;SDS011;5065;46.942;7.432;2024-03-23T12:30:34;0.53;;;0.43;;
10050;SDS011;5065;46.942;7.432;2024-03-23T12:33:01;4.10;;;0.60;;
10050;SDS011;5065;46.942;7.432;2024-03-23T12:35:28;2.40;;;0.50;;
10050;SDS011;5065;46.942;7.432;2024-03-23T12:37:55;2.73;;;0.83;;
10050;SDS011;5065;46.942;7.432;2024-03-23T12:40:22;1.27;;;0.60;;
10050;SDS011;5065;46.942;7.432;2024-03-23T12:42:48;0.67;;;0.57;;
10050;SDS011;5065;46.942;7.432;2024-03-23T12:45:16;0.90;;;0.50;;
10050;SDS011;5065;46.942;7.432;2024-03-23T12:47:43;1.13;;;0.73;;
10050;SDS011;5065;46.942;7.432;2024-03-23T12:50:10;1.93;;;0.57;;
10050;SDS011;5065;46.942;7.432;2024-03-23T12:52:36;2.13;;;0.73;;
10050;SDS011;5065;46.942;7.432;2024-03-23T12:55:04;0.80;;;0.60;;
10050;SDS011;5065;46.942;7.432;2024-03-23T12:57:32;1.67;;;0.67;;
10050;SDS011;5065;46.942;7.432;2024-03-23T12:59:59;1.00;;;0.73;;
10050;SDS011;5065;46.942;7.432;2024-03-23T13:02:27;2.43;;;0.70;;
10050;SDS011;5065;46.942;7.432;2024-03-23T13:04:54;1.93;;;1.23;;
10050;SDS011;5065;46.942;7.432;2024-03-23T13:07:21;2.30;;;0.50;;
10050;SDS011;5065;46.942;7.432;2024-03-23T13:09:52;1.17;;;0.80;;
10050;SDS011;5065;46.942;7.432;2024-03-23T13:12:19;0.53;;;0.50;;
10050;SDS011;5065;46.942;7.432;2024-03-23T13:14:46;5.07;;;1.00;;
10050;SDS011;5065;46.942;7.432;2024-03-23T13:17:12;1.13;;;0.50;;
10050;SDS011;5065;46.942;7.432;2024-03-23T13:19:41;0.60;;;0.43;;
10050;SDS011;5065;46.942;7.432;2024-03-23T13:22:07;1.10;;;0.60;;
10050;SDS011;5065;46.942;7.432;2024-03-23T13:24:36;1.50;;;0.77;;
10050;SDS011;5065;46.942;7.432;2024-03-23T13:27:03;0.80;;;0.50;;
10050;SDS011;5065;46.942;7.432;2024-03-23T13:29:33;4.20;;;1.00;;
10050;SDS011;5065;46.942;7.432;2024-03-23T13:31:59;0.87;;;0.63;;
10050;SDS011;5065;46.942;7.432;2024-03-23T13:34:26;3.60;;;0.97;;
10050;SDS011;5065;46.942;7.432;2024-03-23T13:36:56;1.43;;;0.60;;
10050;SDS011;5065;46.942;7.432;2024-03-23T13:39:24;1.13;;;0.50;;
10050;SDS011;5065;46.942;7.432;2024-03-23T13:41:52;1.47;;;0.70;;
10050;SDS011;5065;46.942;7.432;2024-03-23T13:44:19;1.13;;;0.73;;
10050;SDS011;5065;46.942;7.432;2024-03-23T13:46:46;2.47;;;0.80;;
10050;SDS011;5065;46.942;7.432;2024-03-23T13:49:18;0.93;;;0.80;;
10050;SDS011;5065;46.942;7.432;2024-03-23T13:51:51;0.57;;;0.40;;
10050;SDS011;5065;46.942;7.432;2024-03-23T13:54:20;0.67;;;0.60;;
10050;SDS011;5065;46.942;7.432;2024-03-23T13:56:47;0.87;;;0.70;;
10050;SDS011;5065;46.942;7.432;2024-03-23T13:59:15;1.60;;;0.63;;
10050;SDS011;5065;46.942;7.432;2024-03-23T14:01:43;0.77;;;0.40;;
10050;SDS011;5065;46.942;7.432;2024-03-23T14:04:11;1.47;;;0.50;;
10050;SDS011;5065;46.942;7.432;2024-03-23T14:06:37;3.13;;;0.97;;
10050;SDS011;5065;46.942;7.432;2024-03-23T14:09:05;1.80;;;0.63;;
10050;SDS011;5065;46.942;7.432;2024-03-23T14:11:35;2.90;;;0.60;;
10050;SDS011;5065;46.942;7.432;2024-03-23T14:14:02;2.97;;;0.50;;
10050;SDS011;5065;46.942;7.432;2024-03-23T14:16:29;3.57;;;0.90;;
10050;SDS011;5065;46.942;7.432;2024-03-23T14:18:56;1.33;;;0.70;;
10050;SDS011;5065;46.942;7.432;2024-03-23T14:21:22;2.80;;;0.67;;
10050;SDS011;5065;46.942;7.432;2024-03-23T14:23:50;2.27;;;0.73;;
10050;SDS011;5065;46.942;7.432;2024-03-23T14:26:16;0.63;;;0.60;;
10050;SDS011;5065;46.942;7.432;2024-03-23T14:28:45;2.83;;;0.50;;
10050;SDS011;5065;46.942;7.432;2024-03-23T14:31:11;4.83;;;1.07;;
10050;SDS011;5065;46.942;7.432;2024-03-23T14:33:38;5.17;;;0.90;;
10050;SDS011;5065;46.942;7.432;2024-03-23T14:36:11;1.27;;;0.70;;
10050;SDS011;5065;46.942;7.432;2024-03-23T14:38:38;1.03;;;0.70;;
10050;SDS011;5065;46.942;7.432;2024-03-23T14:41:04;0.73;;;0.50;;
10050;SDS011;5065;46.942;7.432;2024-03-23T14:43:31;2.23;;;0.90;;
10050;SDS011;5065;46.942;7.432;2024-03-23T14:46:08;1.30;;;0.67;;
10050;SDS011;5065;46.942;7.432;2024-03-23T14:48:36;1.53;;;0.83;;
10050;SDS011;5065;46.942;7.432;2024-03-23T14:51:03;2.43;;;0.57;;
10050;SDS011;5065;46.942;7.432;2024-03-23T14:53:31;2.30;;;0.73;;
10050;SDS011;5065;46.942;7.432;2024-03-23T14:55:58;2.83;;;0.60;;
10050;SDS011;5065;46.942;7.432;2024-03-23T14:58:26;2.83;;;0.73;;
10050;SDS011;5065;46.942;7.432;2024-03-23T15:00:53;1.43;;;0.67;;
10050;SDS011;5065;46.942;7.432;2024-03-23T15:03:27;2.27;;;0.87;;
10050;SDS011;5065;46.942;7.432;2024-03-23T15:05:53;1.73;;;0.83;;
10050;SDS011;5065;46.942;7.432;2024-03-23T15:08:21;1.00;;;0.50;;
10050;SDS011;5065;46.942;7.432;2024-03-23T15:10:48;2.57;;;1.00;;
10050;SDS011;5065;46.942;7.432;2024-03-23T15:13:15;2.47;;;0.77;;
10050;SDS011;5065;46.942;7.432;2024-03-23T15:15:41;0.97;;;0.70;;
10050;SDS011;5065;46.942;7.432;2024-03-23T15:18:10;0.80;;;0.60;;
10050;SDS011;5065;46.942;7.432;2024-03-23T15:20:39;1.10;;;0.70;;
10050;SDS011;5065;46.942;7.432;2024-03-23T15:23:06;0.60;;;0.60;;
10050;SDS011;5065;46.942;7.432;2024-03-23T15:25:33;0.60;;;0.60;;
10050;SDS011;5065;46.942;7.432;2024-03-23T15:28:00;0.67;;;0.57;;
10050;SDS011;5065;46.942;7.432;2024-03-23T15:30:27;1.23;;;0.50;;
10050;SDS011;5065;46.942;7.432;2024-03-23T15:32:54;0.83;;;0.57;;
10050;SDS011;5065;46.942;7.432;2024-03-23T15:35:20;2.23;;;0.67;;
10050;SDS011;5065;46.942;7.432;2024-03-23T15:37:50;2.07;;;0.50;;
10050;SDS011;5065;46.942;7.432;2024-03-23T15:40:16;0.77;;;0.60;;
10050;SDS011;5065;46.942;7.432;2024-03-23T15:42:43;0.83;;;0.60;;
10050;SDS011;5065;46.942;7.432;2024-03-23T15:45:09;0.47;;;0.47;;
10050;SDS011;5065;46.942;7.432;2024-03-23T15:47:36;2.60;;;0.80;;
10050;SDS011;5065;46.942;7.432;2024-03-23T15:50:03;1.63;;;0.73;;
10050;SDS011;5065;46.942;7.432;2024-03-23T15:52:34;1.60;;;0.77;;
10050;SDS011;5065;46.942;7.432;2024-03-23T15:55:02;1.40;;;0.57;;